Esquel, Argentina
Current Conditions -  °F | °C
As of 9:00 PM on Friday 21 Nov 2014 (Local Time) from SCFT Reporting Station
Clear Clear  
Wind Chill: 14°   Ceiling: Unl
Heat Index: 14°   Visibility: 6mi
Dew Point:   Wind: 5mph
Humidity: 48%   Direction: 270°W
Pressure: 30"   Gusts: NA
Location:  42.91°S, 71.32°W
Report Text: SCFT 220000Z AUTO 27004KT 200V300 CAVOK 14/03 Q1016
Loading
Personal Weather Stations






























Interactive Weather Map New forecast layout! Learn more

10-Day Weather Forecast

Advertisements
Track Severe Weather on mobile